sensor_id;sensor_type;location;lat;lon;timestamp;pressure;altitude;pressure_sealevel;temperature;humidity
72061;BME280;59925;52.136;5.420;2023-07-13T00:00:38;101474.59;;;16.71;72.78
72061;BME280;59925;52.136;5.420;2023-07-13T00:03:05;101474.66;;;16.66;73.25
72061;BME280;59925;52.136;5.420;2023-07-13T00:05:32;101464.72;;;16.61;73.41
72061;BME280;59925;52.136;5.420;2023-07-13T00:07:59;101468.53;;;16.60;73.19
72061;BME280;59925;52.136;5.420;2023-07-13T00:10:26;101469.13;;;16.57;73.36
72061;BME280;59925;52.136;5.420;2023-07-13T00:12:53;101470.22;;;16.56;73.19
72061;BME280;59925;52.136;5.420;2023-07-13T00:15:23;101471.91;;;16.52;73.52
72061;BME280;59925;52.136;5.420;2023-07-13T00:17:53;101473.59;;;16.48;73.96
72061;BME280;59925;52.136;5.420;2023-07-13T00:20:24;101475.78;;;16.46;73.97
72061;BME280;59925;52.136;5.420;2023-07-13T00:22:52;101471.56;;;16.39;74.31
72061;BME280;59925;52.136;5.420;2023-07-13T00:25:23;101470.53;;;16.35;74.42
72061;BME280;59925;52.136;5.420;2023-07-13T00:27:55;101463.50;;;16.34;74.16
72061;BME280;59925;52.136;5.420;2023-07-13T00:30:22;101467.31;;;16.33;74.11
72061;BME280;59925;52.136;5.420;2023-07-13T00:32:49;101478.72;;;16.30;74.60
72061;BME280;59925;52.136;5.420;2023-07-13T00:35:26;101469.66;;;16.21;74.29
72061;BME280;59925;52.136;5.420;2023-07-13T00:37:53;101474.03;;;16.17;74.59
72061;BME280;59925;52.136;5.420;2023-07-13T00:40:19;101468.94;;;16.15;74.54
72061;BME280;59925;52.136;5.420;2023-07-13T00:42:46;101468.41;;;16.13;74.79
72061;BME280;59925;52.136;5.420;2023-07-13T00:47:40;101476.31;;;16.09;74.81
72061;BME280;59925;52.136;5.420;2023-07-13T00:50:09;101467.69;;;16.07;74.80
72061;BME280;59925;52.136;5.420;2023-07-13T00:52:38;101474.19;;;16.06;74.67
72061;BME280;59925;52.136;5.420;2023-07-13T00:55:07;101479.16;;;15.99;74.77
72061;BME280;59925;52.136;5.420;2023-07-13T00:57:35;101469.44;;;15.98;74.87
72061;BME280;59925;52.136;5.420;2023-07-13T01:00:05;101468.97;;;15.91;75.22
72061;BME280;59925;52.136;5.420;2023-07-13T01:02:34;101472.53;;;15.86;75.41
72061;BME280;59925;52.136;5.420;2023-07-13T01:05:01;101467.97;;;15.82;75.77
72061;BME280;59925;52.136;5.420;2023-07-13T01:07:28;101466.66;;;15.79;76.05
72061;BME280;59925;52.136;5.420;2023-07-13T01:09:55;101466.41;;;15.75;76.19
72061;BME280;59925;52.136;5.420;2023-07-13T01:12:21;101466.19;;;15.72;76.51
72061;BME280;59925;52.136;5.420;2023-07-13T01:14:48;101472.69;;;15.71;76.38
72061;BME280;59925;52.136;5.420;2023-07-13T01:17:15;101472.78;;;15.66;76.51
72061;BME280;59925;52.136;5.420;2023-07-13T01:19:43;101473.03;;;15.64;76.62
72061;BME280;59925;52.136;5.420;2023-07-13T01:22:16;101482.53;;;15.61;77.30
72061;BME280;59925;52.136;5.420;2023-07-13T01:24:45;101486.09;;;15.57;77.21
72061;BME280;59925;52.136;5.420;2023-07-13T01:27:16;101490.19;;;15.54;77.56
72061;BME280;59925;52.136;5.420;2023-07-13T01:29:44;101487.25;;;15.51;77.77
72061;BME280;59925;52.136;5.420;2023-07-13T01:32:21;101485.94;;;15.48;77.96
72061;BME280;59925;52.136;5.420;2023-07-13T01:34:51;101487.31;;;15.45;77.87
72061;BME280;59925;52.136;5.420;2023-07-13T01:37:21;101484.88;;;15.44;78.07
72061;BME280;59925;52.136;5.420;2023-07-13T01:39:48;101485.97;;;15.43;78.05
72061;BME280;59925;52.136;5.420;2023-07-13T01:42:15;101486.84;;;15.38;78.25
72061;BME280;59925;52.136;5.420;2023-07-13T01:44:41;101484.44;;;15.37;78.53
72061;BME280;59925;52.136;5.420;2023-07-13T01:47:10;101483.91;;;15.35;78.72
72061;BME280;59925;52.136;5.420;2023-07-13T01:49:36;101483.38;;;15.32;78.77
72061;BME280;59925;52.136;5.420;2023-07-13T01:52:04;101486.38;;;15.31;78.81
72061;BME280;59925;52.136;5.420;2023-07-13T01:54:31;101492.34;;;15.28;78.92
72061;BME280;59925;52.136;5.420;2023-07-13T01:57:00;101487.81;;;15.23;78.96
72061;BME280;59925;52.136;5.420;2023-07-13T01:59:26;101491.88;;;15.21;79.37
72061;BME280;59925;52.136;5.420;2023-07-13T02:01:53;101485.44;;;15.16;79.52
72061;BME280;59925;52.136;5.420;2023-07-13T02:04:19;101485.75;;;15.10;79.81
72061;BME280;59925;52.136;5.420;2023-07-13T02:06:46;101490.88;;;15.11;79.62
72061;BME280;59925;52.136;5.420;2023-07-13T02:09:13;101494.44;;;15.07;79.86
72061;BME280;59925;52.136;5.420;2023-07-13T02:11:39;101490.66;;;15.02;80.20
72061;BME280;59925;52.136;5.420;2023-07-13T02:14:06;101496.38;;;15.01;80.47
72061;BME280;59925;52.136;5.420;2023-07-13T02:16:32;101513.41;;;14.96;80.92
72061;BME280;59925;52.136;5.420;2023-07-13T02:18:59;101510.75;;;14.91;80.99
72061;BME280;59925;52.136;5.420;2023-07-13T02:21:27;101513.22;;;14.88;81.47
72061;BME280;59925;52.136;5.420;2023-07-13T02:23:54;101501.31;;;14.89;81.30
72061;BME280;59925;52.136;5.420;2023-07-13T02:26:21;101501.63;;;14.87;81.26
72061;BME280;59925;52.136;5.420;2023-07-13T02:28:47;101506.72;;;14.89;81.27
72061;BME280;59925;52.136;5.420;2023-07-13T02:31:15;101507.28;;;14.85;81.18
72061;BME280;59925;52.136;5.420;2023-07-13T02:33:43;101503.78;;;14.85;81.19
72061;BME280;59925;52.136;5.420;2023-07-13T02:36:10;101505.97;;;14.83;81.21
72061;BME280;59925;52.136;5.420;2023-07-13T02:38:37;101507.59;;;14.79;81.63
72061;BME280;59925;52.136;5.420;2023-07-13T02:41:06;101508.69;;;14.78;81.90
72061;BME280;59925;52.136;5.420;2023-07-13T02:43:33;101512.25;;;14.73;82.07
72061;BME280;59925;52.136;5.420;2023-07-13T02:46:00;101514.69;;;14.69;82.41
72061;BME280;59925;52.136;5.420;2023-07-13T02:48:34;101517.09;;;14.71;82.42
72061;BME280;59925;52.136;5.420;2023-07-13T02:51:00;101510.91;;;14.65;82.80
72061;BME280;59925;52.136;5.420;2023-07-13T02:53:27;101504.75;;;14.60;83.20
72061;BME280;59925;52.136;5.420;2023-07-13T02:55:54;101505.81;;;14.59;83.29
72061;BME280;59925;52.136;5.420;2023-07-13T02:58:20;101505.88;;;14.53;83.73
72061;BME280;59925;52.136;5.420;2023-07-13T03:00:48;101513.16;;;14.53;83.85
72061;BME280;59925;52.136;5.420;2023-07-13T03:03:16;101510.75;;;14.51;84.08
72061;BME280;59925;52.136;5.420;2023-07-13T03:05:44;101511.28;;;14.48;84.17
72061;BME280;59925;52.136;5.420;2023-07-13T03:08:17;101512.91;;;14.49;84.13
72061;BME280;59925;52.136;5.420;2023-07-13T03:10:44;101521.78;;;14.50;83.88
72061;BME280;59925;52.136;5.420;2023-07-13T03:13:11;101518.59;;;14.48;84.00
72061;BME280;59925;52.136;5.420;2023-07-13T03:15:37;101518.59;;;14.48;84.29
72061;BME280;59925;52.136;5.420;2023-07-13T03:18:04;101520.78;;;14.40;85.05
72061;BME280;59925;52.136;5.420;2023-07-13T03:20:33;101515.38;;;14.40;85.21
72061;BME280;59925;52.136;5.420;2023-07-13T03:23:01;101510.53;;;14.37;85.37
72061;BME280;59925;52.136;5.420;2023-07-13T03:25:30;101515.94;;;14.37;85.28
72061;BME280;59925;52.136;5.420;2023-07-13T03:27:57;101529.19;;;14.34;85.78
72061;BME280;59925;52.136;5.420;2023-07-13T03:30:24;101528.09;;;14.30;85.79
72061;BME280;59925;52.136;5.420;2023-07-13T03:32:50;101531.88;;;14.34;85.68
72061;BME280;59925;52.136;5.420;2023-07-13T03:35:17;101529.47;;;14.32;85.90
72061;BME280;59925;52.136;5.420;2023-07-13T03:37:44;101536.19;;;14.30;86.24
72061;BME280;59925;52.136;5.420;2023-07-13T03:40:11;101534.63;;;14.29;86.00
72061;BME280;59925;52.136;5.420;2023-07-13T03:42:38;101541.34;;;14.31;86.07
72061;BME280;59925;52.136;5.420;2023-07-13T03:45:05;101546.19;;;14.29;86.36
72061;BME280;59925;52.136;5.420;2023-07-13T03:47:32;101537.84;;;14.25;86.75
72061;BME280;59925;52.136;5.420;2023-07-13T03:49:58;101548.66;;;14.25;87.51
72061;BME280;59925;52.136;5.420;2023-07-13T03:52:25;101544.56;;;14.28;87.47
72061;BME280;59925;52.136;5.420;2023-07-13T03:54:52;101550.50;;;14.30;87.40
72061;BME280;59925;52.136;5.420;2023-07-13T03:57:18;101558.59;;;14.35;87.31
72061;BME280;59925;52.136;5.420;2023-07-13T03:59:45;101557.75;;;14.35;87.81
72061;BME280;59925;52.136;5.420;2023-07-13T04:02:12;101561.00;;;14.37;87.98
72061;BME280;59925;52.136;5.420;2023-07-13T04:04:38;101562.31;;;14.39;87.98
72061;BME280;59925;52.136;5.420;2023-07-13T04:07:07;101570.41;;;14.39;88.16
72061;BME280;59925;52.136;5.420;2023-07-13T04:09:35;101572.31;;;14.39;88.38
72061;BME280;59925;52.136;5.420;2023-07-13T04:12:02;101566.38;;;14.37;88.63
72061;BME280;59925;52.136;5.420;2023-07-13T04:14:29;101573.34;;;14.43;88.84
72061;BME280;59925;52.136;5.420;2023-07-13T04:16:56;101574.47;;;14.42;88.84
72061;BME280;59925;52.136;5.420;2023-07-13T04:19:22;101576.03;;;14.48;88.55
72061;BME280;59925;52.136;5.420;2023-07-13T04:21:49;101576.56;;;14.50;88.27
72061;BME280;59925;52.136;5.420;2023-07-13T04:24:16;101576.88;;;14.49;88.55
72061;BME280;59925;52.136;5.420;2023-07-13T04:26:42;101569.88;;;14.43;88.96
72061;BME280;59925;52.136;5.420;2023-07-13T04:29:09;101579.56;;;14.44;89.27
72061;BME280;59925;52.136;5.420;2023-07-13T04:31:36;101582.50;;;14.47;89.26
72061;BME280;59925;52.136;5.420;2023-07-13T04:34:03;101588.97;;;14.51;89.43
72061;BME280;59925;52.136;5.420;2023-07-13T04:36:29;101587.06;;;14.57;89.38
72061;BME280;59925;52.136;5.420;2023-07-13T04:38:56;101584.59;;;14.66;88.96
72061;BME280;59925;52.136;5.420;2023-07-13T04:41:23;101576.47;;;14.71;88.74
72061;BME280;59925;52.136;5.420;2023-07-13T04:43:49;101582.94;;;14.75;88.73
72061;BME280;59925;52.136;5.420;2023-07-13T04:46:17;101578.84;;;14.83;88.49
72061;BME280;59925;52.136;5.420;2023-07-13T04:48:45;101584.16;;;14.93;87.83
72061;BME280;59925;52.136;5.420;2023-07-13T04:51:12;101589.00;;;14.96;87.81
72061;BME280;59925;52.136;5.420;2023-07-13T04:53:39;101585.25;;;14.92;88.04
72061;BME280;59925;52.136;5.420;2023-07-13T04:56:05;101590.34;;;14.99;88.49
72061;BME280;59925;52.136;5.420;2023-07-13T04:58:33;101584.09;;;15.04;88.46
72061;BME280;59925;52.136;5.420;2023-07-13T05:01:04;101581.66;;;15.07;88.54
72061;BME280;59925;52.136;5.420;2023-07-13T05:03:32;101581.59;;;15.12;88.61
72061;BME280;59925;52.136;5.420;2023-07-13T05:06:02;101582.63;;;15.22;88.69
72061;BME280;59925;52.136;5.420;2023-07-13T05:08:29;101590.16;;;15.25;88.77
72061;BME280;59925;52.136;5.420;2023-07-13T05:10:56;101590.88;;;15.36;88.58
72061;BME280;59925;52.136;5.420;2023-07-13T05:13:25;101598.09;;;15.45;88.30
72061;BME280;59925;52.136;5.420;2023-07-13T05:16:00;101604.03;;;15.47;88.23
72061;BME280;59925;52.136;5.420;2023-07-13T05:18:28;101597.69;;;15.57;88.21
72061;BME280;59925;52.136;5.420;2023-07-13T05:21:01;101593.13;;;15.58;88.09
72061;BME280;59925;52.136;5.420;2023-07-13T05:23:28;101590.88;;;15.65;88.13
72061;BME280;59925;52.136;5.420;2023-07-13T05:25:55;101605.44;;;15.69;87.98
72061;BME280;59925;52.136;5.420;2023-07-13T05:28:22;101602.16;;;15.72;88.08
72061;BME280;59925;52.136;5.420;2023-07-13T05:30:49;101606.41;;;15.78;88.19
72061;BME280;59925;52.136;5.420;2023-07-13T05:33:16;101605.56;;;15.83;88.09
72061;BME280;59925;52.136;5.420;2023-07-13T05:35:43;101611.66;;;15.99;87.81
72061;BME280;59925;52.136;5.420;2023-07-13T05:38:10;101616.13;;;16.09;87.35
72061;BME280;59925;52.136;5.420;2023-07-13T05:40:37;101618.03;;;16.08;87.04
72061;BME280;59925;52.136;5.420;2023-07-13T05:43:03;101615.09;;;16.05;87.19
72061;BME280;59925;52.136;5.420;2023-07-13T05:45:30;101615.84;;;16.11;87.36
72061;BME280;59925;52.136;5.420;2023-07-13T05:47:57;101617.41;;;16.17;87.17
72061;BME280;59925;52.136;5.420;2023-07-13T05:50:23;101628.91;;;16.28;86.95
72061;BME280;59925;52.136;5.420;2023-07-13T05:52:50;101623.72;;;16.31;86.61
72061;BME280;59925;52.136;5.420;2023-07-13T05:55:17;101627.78;;;16.34;86.61
72061;BME280;59925;52.136;5.420;2023-07-13T05:57:43;101626.91;;;16.38;86.80
72061;BME280;59925;52.136;5.420;2023-07-13T06:00:11;101631.13;;;16.45;86.59
72061;BME280;59925;52.136;5.420;2023-07-13T06:02:37;101638.28;;;16.60;86.32
72061;BME280;59925;52.136;5.420;2023-07-13T06:05:04;101638.50;;;16.63;85.98
72061;BME280;59925;52.136;5.420;2023-07-13T06:07:31;101635.47;;;16.65;85.72
72061;BME280;59925;52.136;5.420;2023-07-13T06:09:58;101635.78;;;16.63;86.04
72061;BME280;59925;52.136;5.420;2023-07-13T06:12:26;101650.78;;;16.75;86.08
72061;BME280;59925;52.136;5.420;2023-07-13T06:14:53;101653.13;;;16.81;85.76
72061;BME280;59925;52.136;5.420;2023-07-13T06:17:20;101657.63;;;16.91;85.23
72061;BME280;59925;52.136;5.420;2023-07-13T06:19:46;101655.09;;;17.00;85.22
72061;BME280;59925;52.136;5.420;2023-07-13T06:22:13;101656.44;;;17.16;85.07
72061;BME280;59925;52.136;5.420;2023-07-13T06:24:40;101656.69;;;17.20;84.34
72061;BME280;59925;52.136;5.420;2023-07-13T06:27:06;101663.28;;;17.14;84.40
72061;BME280;59925;52.136;5.420;2023-07-13T06:29:33;101660.63;;;17.09;84.37
72061;BME280;59925;52.136;5.420;2023-07-13T06:32:00;101663.63;;;17.07;84.44
72061;BME280;59925;52.136;5.420;2023-07-13T06:34:27;101665.09;;;17.19;84.67
72061;BME280;59925;52.136;5.420;2023-07-13T06:36:54;101671.75;;;17.26;83.93
72061;BME280;59925;52.136;5.420;2023-07-13T06:39:20;101668.84;;;17.23;84.00
72061;BME280;59925;52.136;5.420;2023-07-13T06:41:47;101673.94;;;17.24;84.17
72061;BME280;59925;52.136;5.420;2023-07-13T06:44:14;101673.94;;;17.24;84.05
72061;BME280;59925;52.136;5.420;2023-07-13T06:46:40;101667.75;;;17.24;84.08
72061;BME280;59925;52.136;5.420;2023-07-13T06:49:09;101668.47;;;17.29;84.21
72061;BME280;59925;52.136;5.420;2023-07-13T06:51:35;101670.13;;;17.44;83.68
72061;BME280;59925;52.136;5.420;2023-07-13T06:54:02;101668.81;;;17.42;83.53
72061;BME280;59925;52.136;5.420;2023-07-13T06:56:29;101664.91;;;17.48;83.15
72061;BME280;59925;52.136;5.420;2023-07-13T06:58:56;101662.53;;;17.60;83.42
72061;BME280;59925;52.136;5.420;2023-07-13T07:01:23;101670.44;;;17.90;83.51
72061;BME280;59925;52.136;5.420;2023-07-13T07:03:49;101686.72;;;19.02;81.22
72061;BME280;59925;52.136;5.420;2023-07-13T07:06:19;101680.25;;;19.80;78.18
72061;BME280;59925;52.136;5.420;2023-07-13T07:08:46;101679.41;;;19.48;75.50
72061;BME280;59925;52.136;5.420;2023-07-13T07:11:15;101691.88;;;19.03;76.69
72061;BME280;59925;52.136;5.420;2023-07-13T07:13:42;101692.69;;;18.90;77.26
72061;BME280;59925;52.136;5.420;2023-07-13T07:16:09;101689.44;;;19.02;78.16
72061;BME280;59925;52.136;5.420;2023-07-13T07:18:36;101692.00;;;19.21;77.82
72061;BME280;59925;52.136;5.420;2023-07-13T07:21:03;101686.38;;;19.17;77.24
72061;BME280;59925;52.136;5.420;2023-07-13T07:23:29;101697.66;;;19.24;76.74
72061;BME280;59925;52.136;5.420;2023-07-13T07:25:56;101702.88;;;19.21;76.20
72061;BME280;59925;52.136;5.420;2023-07-13T07:28:23;101712.97;;;19.06;77.36
72061;BME280;59925;52.136;5.420;2023-07-13T07:30:54;101706.38;;;18.98;77.72
72061;BME280;59925;52.136;5.420;2023-07-13T07:33:41;101701.84;;;18.94;79.00
72061;BME280;59925;52.136;5.420;2023-07-13T07:36:08;101707.09;;;18.76;79.02
72061;BME280;59925;52.136;5.420;2023-07-13T07:38:37;101703.28;;;18.49;80.28
72061;BME280;59925;52.136;5.420;2023-07-13T07:41:05;101708.81;;;18.44;80.62
72061;BME280;59925;52.136;5.420;2023-07-13T07:43:34;101705.06;;;18.40;81.72
72061;BME280;59925;52.136;5.420;2023-07-13T07:46:02;101689.50;;;18.46;81.87
72061;BME280;59925;52.136;5.420;2023-07-13T07:48:30;101695.53;;;18.43;81.93
72061;BME280;59925;52.136;5.420;2023-07-13T07:50:56;101688.59;;;18.36;82.70
72061;BME280;59925;52.136;5.420;2023-07-13T07:53:23;101688.09;;;18.48;82.18
72061;BME280;59925;52.136;5.420;2023-07-13T07:55:50;101684.25;;;18.35;82.11
72061;BME280;59925;52.136;5.420;2023-07-13T07:58:20;101680.56;;;18.31;82.94
72061;BME280;59925;52.136;5.420;2023-07-13T08:00:49;101685.19;;;18.45;82.84
72061;BME280;59925;52.136;5.420;2023-07-13T08:03:19;101682.13;;;18.74;82.84
72061;BME280;59925;52.136;5.420;2023-07-13T08:05:48;101690.88;;;19.22;81.98
72061;BME280;59925;52.136;5.420;2023-07-13T08:08:18;101702.66;;;19.31;80.12
72061;BME280;59925;52.136;5.420;2023-07-13T08:10:44;101695.72;;;19.48;79.11
72061;BME280;59925;52.136;5.420;2023-07-13T08:13:11;101694.88;;;19.93;78.05
72061;BME280;59925;52.136;5.420;2023-07-13T08:15:38;101698.44;;;19.93;77.04
72061;BME280;59925;52.136;5.420;2023-07-13T08:18:04;101703.72;;;19.98;78.00
72061;BME280;59925;52.136;5.420;2023-07-13T08:20:31;101694.53;;;19.85;76.92
72061;BME280;59925;52.136;5.420;2023-07-13T08:22:58;101691.31;;;20.15;78.40
72061;BME280;59925;52.136;5.420;2023-07-13T08:25:24;101690.72;;;20.27;74.89
72061;BME280;59925;52.136;5.420;2023-07-13T08:27:51;101690.78;;;20.35;74.20
72061;BME280;59925;52.136;5.420;2023-07-13T08:30:18;101693.53;;;20.44;74.52
72061;BME280;59925;52.136;5.420;2023-07-13T08:32:44;101699.69;;;20.27;73.40
72061;BME280;59925;52.136;5.420;2023-07-13T08:35:11;101689.00;;;20.40;74.75
72061;BME280;59925;52.136;5.420;2023-07-13T08:37:38;101681.31;;;20.42;73.14
72061;BME280;59925;52.136;5.420;2023-07-13T08:40:05;101683.69;;;21.01;72.33
72061;BME280;59925;52.136;5.420;2023-07-13T08:42:50;101685.13;;;21.25;70.35
72061;BME280;59925;52.136;5.420;2023-07-13T08:47:57;101693.81;;;21.01;68.48
72061;BME280;59925;52.136;5.420;2023-07-13T08:50:31;101709.16;;;20.79;68.89
72061;BME280;59925;52.136;5.420;2023-07-13T08:53:13;101722.06;;;20.64;66.32
72061;BME280;59925;52.136;5.420;2023-07-13T08:55:40;101727.06;;;20.62;64.99
72061;BME280;59925;52.136;5.420;2023-07-13T08:58:15;101715.13;;;20.41;64.43
72061;BME280;59925;52.136;5.420;2023-07-13T09:00:54;101713.31;;;19.96;64.41
72061;BME280;59925;52.136;5.420;2023-07-13T09:03:30;101724.38;;;19.76;65.14
72061;BME280;59925;52.136;5.420;2023-07-13T09:06:02;101729.47;;;19.69;67.22
72061;BME280;59925;52.136;5.420;2023-07-13T09:08:37;101725.16;;;19.68;68.66
72061;BME280;59925;52.136;5.420;2023-07-13T09:11:29;101726.50;;;19.57;67.50
72061;BME280;59925;52.136;5.420;2023-07-13T09:14:31;101722.53;;;19.40;69.15
72061;BME280;59925;52.136;5.420;2023-07-13T09:17:03;101723.59;;;19.30;70.61
72061;BME280;59925;52.136;5.420;2023-07-13T09:19:32;101724.66;;;19.43;71.65
72061;BME280;59925;52.136;5.420;2023-07-13T09:22:03;101712.53;;;19.50;72.44
72061;BME280;59925;52.136;5.420;2023-07-13T09:24:41;101716.78;;;19.42;72.72
72061;BME280;59925;52.136;5.420;2023-07-13T09:27:19;101724.25;;;19.36;73.56
72061;BME280;59925;52.136;5.420;2023-07-13T09:32:43;101730.09;;;19.89;73.67
72061;BME280;59925;52.136;5.420;2023-07-13T09:35:12;101722.84;;;20.56;74.62
72061;BME280;59925;52.136;5.420;2023-07-13T09:37:43;101724.22;;;20.76;71.74
72061;BME280;59925;52.136;5.420;2023-07-13T09:40:21;101712.69;;;21.06;72.00
72061;BME280;59925;52.136;5.420;2023-07-13T09:42:49;101718.66;;;21.61;68.81
72061;BME280;59925;52.136;5.420;2023-07-13T09:45:27;101720.09;;;21.49;68.18
72061;BME280;59925;52.136;5.420;2023-07-13T09:48:10;101727.31;;;21.19;66.78
72061;BME280;59925;52.136;5.420;2023-07-13T09:50:39;101731.59;;;20.85;68.26
72061;BME280;59925;52.136;5.420;2023-07-13T09:53:12;101739.31;;;20.42;70.14
72061;BME280;59925;52.136;5.420;2023-07-13T09:55:41;101762.97;;;19.79;74.71
72061;BME280;59925;52.136;5.420;2023-07-13T10:00:44;101766.22;;;18.79;83.17
72061;BME280;59925;52.136;5.420;2023-07-13T10:03:21;101763.50;;;18.65;85.57
72061;BME280;59925;52.136;5.420;2023-07-13T10:05:50;101758.50;;;18.45;86.83
72061;BME280;59925;52.136;5.420;2023-07-13T10:11:01;101764.28;;;19.22;89.21
72061;BME280;59925;52.136;5.420;2023-07-13T10:13:35;101754.06;;;19.64;86.41
72061;BME280;59925;52.136;5.420;2023-07-13T10:16:06;101759.63;;;19.82;85.96
72061;BME280;59925;52.136;5.420;2023-07-13T10:21:22;101771.53;;;20.09;84.41
72061;BME280;59925;52.136;5.420;2023-07-13T10:24:35;101773.25;;;19.82;84.98
72061;BME280;59925;52.136;5.420;2023-07-13T10:29:41;101764.47;;;20.08;86.09
72061;BME280;59925;52.136;5.420;2023-07-13T10:32:11;101762.47;;;20.71;85.76
72061;BME280;59925;52.136;5.420;2023-07-13T10:34:40;101768.84;;;21.07;83.56
72061;BME280;59925;52.136;5.420;2023-07-13T10:37:18;101771.44;;;21.30;82.43
72061;BME280;59925;52.136;5.420;2023-07-13T10:39:47;101767.72;;;21.08;81.33
72061;BME280;59925;52.136;5.420;2023-07-13T10:42:25;101768.50;;;20.91;80.88
72061;BME280;59925;52.136;5.420;2023-07-13T10:44:53;101771.75;;;20.61;80.01
72061;BME280;59925;52.136;5.420;2023-07-13T10:47:20;101774.91;;;20.46;80.95
72061;BME280;59925;52.136;5.420;2023-07-13T10:49:50;101782.06;;;20.42;80.67
72061;BME280;59925;52.136;5.420;2023-07-13T10:55:55;101782.63;;;21.19;78.84
72061;BME280;59925;52.136;5.420;2023-07-13T10:58:43;101773.22;;;21.69;75.11
72061;BME280;59925;52.136;5.420;2023-07-13T11:01:17;101773.53;;;21.77;74.04
72061;BME280;59925;52.136;5.420;2023-07-13T11:03:50;101773.63;;;21.98;72.20
72061;BME280;59925;52.136;5.420;2023-07-13T11:14:03;101798.00;;;22.98;65.03
72061;BME280;59925;52.136;5.420;2023-07-13T11:16:43;101793.00;;;23.00;65.85
72061;BME280;59925;52.136;5.420;2023-07-13T11:24:51;101785.56;;;23.52;64.72
72061;BME280;59925;52.136;5.420;2023-07-13T11:38:30;101782.84;;;21.76;68.98
72061;BME280;59925;52.136;5.420;2023-07-13T11:41:01;101795.97;;;21.30;72.59
72061;BME280;59925;52.136;5.420;2023-07-13T11:43:29;101799.41;;;20.77;76.11
72061;BME280;59925;52.136;5.420;2023-07-13T11:45:56;101804.06;;;20.77;79.12
72061;BME280;59925;52.136;5.420;2023-07-13T11:48:27;101811.16;;;20.64;80.04
72061;BME280;59925;52.136;5.420;2023-07-13T11:51:01;101818.50;;;20.55;81.24
72061;BME280;59925;52.136;5.420;2023-07-13T11:53:35;101809.53;;;20.54;82.00
72061;BME280;59925;52.136;5.420;2023-07-13T11:56:05;101817.66;;;20.45;81.60
72061;BME280;59925;52.136;5.420;2023-07-13T11:58:32;101825.13;;;20.31;79.80
72061;BME280;59925;52.136;5.420;2023-07-13T12:01:01;101813.81;;;20.15;78.68
72061;BME280;59925;52.136;5.420;2023-07-13T12:03:33;101808.19;;;20.11;80.30
72061;BME280;59925;52.136;5.420;2023-07-13T12:06:04;101822.41;;;20.08;81.65
72061;BME280;59925;52.136;5.420;2023-07-13T12:08:38;101811.34;;;20.04;82.43
72061;BME280;59925;52.136;5.420;2023-07-13T12:11:16;101810.47;;;20.18;81.56
72061;BME280;59925;52.136;5.420;2023-07-13T12:13:44;101812.75;;;20.25;82.01
72061;BME280;59925;52.136;5.420;2023-07-13T12:16:21;101814.41;;;20.34;81.99
72061;BME280;59925;52.136;5.420;2023-07-13T12:18:52;101816.63;;;20.32;82.41
72061;BME280;59925;52.136;5.420;2023-07-13T12:21:23;101815.41;;;20.47;80.05
72061;BME280;59925;52.136;5.420;2023-07-13T12:23:52;101819.84;;;20.34;79.45
72061;BME280;59925;52.136;5.420;2023-07-13T12:26:19;101814.91;;;20.36;80.92
72061;BME280;59925;52.136;5.420;2023-07-13T12:28:52;101818.28;;;20.42;80.94
72061;BME280;59925;52.136;5.420;2023-07-13T12:34:02;101826.25;;;21.02;79.36
72061;BME280;59925;52.136;5.420;2023-07-13T12:36:32;101811.97;;;21.13;80.20
72061;BME280;59925;52.136;5.420;2023-07-13T12:39:04;101811.03;;;21.09;79.04
72061;BME280;59925;52.136;5.420;2023-07-13T12:41:32;101814.63;;;21.80;78.58
72061;BME280;59925;52.136;5.420;2023-07-13T12:43:59;101804.53;;;22.37;75.09
72061;BME280;59925;52.136;5.420;2023-07-13T12:46:26;101809.84;;;22.81;73.88
72061;BME280;59925;52.136;5.420;2023-07-13T12:48:57;101800.72;;;22.68;71.87
72061;BME280;59925;52.136;5.420;2023-07-13T12:51:38;101801.38;;;22.17;72.71
72061;BME280;59925;52.136;5.420;2023-07-13T12:54:18;101806.09;;;21.55;71.88
72061;BME280;59925;52.136;5.420;2023-07-13T12:56:49;101813.31;;;21.95;72.81
72061;BME280;59925;52.136;5.420;2023-07-13T12:59:20;101811.44;;;22.34;67.54
72061;BME280;59925;52.136;5.420;2023-07-13T13:01:49;101807.16;;;22.72;69.30
72061;BME280;59925;52.136;5.420;2023-07-13T13:04:16;101809.41;;;22.70;67.25
72061;BME280;59925;52.136;5.420;2023-07-13T13:06:49;101805.25;;;22.08;65.91
72061;BME280;59925;52.136;5.420;2023-07-13T13:09:17;101808.19;;;21.76;67.07
72061;BME280;59925;52.136;5.420;2023-07-13T13:11:45;101814.13;;;21.61;67.66
72061;BME280;59925;52.136;5.420;2023-07-13T13:14:12;101803.28;;;22.26;69.05
72061;BME280;59925;52.136;5.420;2023-07-13T13:16:47;101806.50;;;22.75;66.74
72061;BME280;59925;52.136;5.420;2023-07-13T13:19:20;101810.66;;;22.43;67.07
72061;BME280;59925;52.136;5.420;2023-07-13T13:21:53;101816.59;;;22.36;67.79
72061;BME280;59925;52.136;5.420;2023-07-13T13:24:22;101812.50;;;22.90;67.03
72061;BME280;59925;52.136;5.420;2023-07-13T13:26:50;101809.38;;;23.30;63.25
72061;BME280;59925;52.136;5.420;2023-07-13T13:29:23;101814.63;;;22.84;60.17
72061;BME280;59925;52.136;5.420;2023-07-13T13:31:56;101816.09;;;22.81;61.36
72061;BME280;59925;52.136;5.420;2023-07-13T13:34:24;101820.06;;;23.23;61.48
72061;BME280;59925;52.136;5.420;2023-07-13T13:36:53;101820.63;;;22.77;59.91
72061;BME280;59925;52.136;5.420;2023-07-13T13:39:31;101815.16;;;22.30;59.91
72061;BME280;59925;52.136;5.420;2023-07-13T13:41:59;101817.78;;;22.09;61.44
72061;BME280;59925;52.136;5.420;2023-07-13T13:44:26;101821.53;;;22.52;60.87
72061;BME280;59925;52.136;5.420;2023-07-13T13:46:54;101822.53;;;22.86;60.89
72061;BME280;59925;52.136;5.420;2023-07-13T13:49:24;101821.66;;;22.64;60.84